sensor_id;sensor_type;location;lat;lon;timestamp;pressure;altitude;pressure_sealevel;temperature;humidity
75681;BME280;64294;49.176;16.626;2023-07-20T00:00:29;98651.28;;;19.50;71.07
75681;BME280;64294;49.176;16.626;2023-07-20T00:03:09;98651.28;;;19.50;71.02
75681;BME280;64294;49.176;16.626;2023-07-20T00:05:35;98647.16;;;19.42;71.08
75681;BME280;64294;49.176;16.626;2023-07-20T00:08:01;98652.13;;;19.41;72.53
75681;BME280;64294;49.176;16.626;2023-07-20T00:10:26;98645.91;;;19.33;72.83
75681;BME280;64294;49.176;16.626;2023-07-20T00:12:54;98654.81;;;19.27;72.09
75681;BME280;64294;49.176;16.626;2023-07-20T00:15:20;98642.66;;;19.27;72.30
75681;BME280;64294;49.176;16.626;2023-07-20T00:17:45;98646.75;;;19.24;73.08
75681;BME280;64294;49.176;16.626;2023-07-20T00:20:11;98654.28;;;19.19;74.12
75681;BME280;64294;49.176;16.626;2023-07-20T00:22:36;98648.94;;;19.14;73.99
75681;BME280;64294;49.176;16.626;2023-07-20T00:25:02;98649.69;;;19.14;74.88
75681;BME280;64294;49.176;16.626;2023-07-20T00:27:28;98658.09;;;19.12;73.04
75681;BME280;64294;49.176;16.626;2023-07-20T00:29:56;98660.88;;;19.22;72.85
75681;BME280;64294;49.176;16.626;2023-07-20T00:32:21;98650.28;;;19.13;72.10
75681;BME280;64294;49.176;16.626;2023-07-20T00:34:47;98646.38;;;19.18;73.29
75681;BME280;64294;49.176;16.626;2023-07-20T00:37:12;98655.66;;;19.18;73.04
75681;BME280;64294;49.176;16.626;2023-07-20T00:39:38;98658.72;;;19.11;72.76
75681;BME280;64294;49.176;16.626;2023-07-20T00:42:04;98656.00;;;19.13;73.00
75681;BME280;64294;49.176;16.626;2023-07-20T00:44:29;98665.69;;;19.19;72.68
75681;BME280;64294;49.176;16.626;2023-07-20T00:47:01;98665.44;;;19.15;72.23
75681;BME280;64294;49.176;16.626;2023-07-20T00:49:26;98670.84;;;19.11;72.58
75681;BME280;64294;49.176;16.626;2023-07-20T00:51:51;98669.03;;;19.16;70.95
75681;BME280;64294;49.176;16.626;2023-07-20T00:54:18;98675.78;;;19.11;70.66
75681;BME280;64294;49.176;16.626;2023-07-20T00:56:44;98673.56;;;19.09;71.35
75681;BME280;64294;49.176;16.626;2023-07-20T00:59:09;98668.88;;;19.14;73.05
75681;BME280;64294;49.176;16.626;2023-07-20T01:01:35;98659.44;;;18.99;72.71
75681;BME280;64294;49.176;16.626;2023-07-20T01:04:00;98665.72;;;18.98;73.14
75681;BME280;64294;49.176;16.626;2023-07-20T01:11:38;98669.03;;;18.94;72.25
75681;BME280;64294;49.176;16.626;2023-07-20T01:14:06;98664.31;;;18.87;72.80
75681;BME280;64294;49.176;16.626;2023-07-20T01:16:32;98663.78;;;18.79;73.27
75681;BME280;64294;49.176;16.626;2023-07-20T01:18:59;98668.75;;;18.79;72.97
75681;BME280;64294;49.176;16.626;2023-07-20T01:21:31;98661.34;;;18.85;73.72
75681;BME280;64294;49.176;16.626;2023-07-20T01:32:23;98676.09;;;18.93;71.47
75681;BME280;64294;49.176;16.626;2023-07-20T01:34:52;98682.47;;;19.03;71.17
75681;BME280;64294;49.176;16.626;2023-07-20T01:37:20;98672.44;;;19.02;71.13
75681;BME280;64294;49.176;16.626;2023-07-20T01:39:51;98681.47;;;18.99;71.64
75681;BME280;64294;49.176;16.626;2023-07-20T01:42:21;98695.16;;;18.91;71.81
75681;BME280;64294;49.176;16.626;2023-07-20T01:44:46;98695.75;;;18.89;71.91
75681;BME280;64294;49.176;16.626;2023-07-20T01:47:12;98691.56;;;18.90;72.16
75681;BME280;64294;49.176;16.626;2023-07-20T01:49:37;98696.72;;;18.82;72.41
75681;BME280;64294;49.176;16.626;2023-07-20T01:52:06;98688.72;;;18.69;74.13
75681;BME280;64294;49.176;16.626;2023-07-20T01:54:31;98693.63;;;18.78;73.40
75681;BME280;64294;49.176;16.626;2023-07-20T01:56:56;98697.78;;;18.77;72.55
75681;BME280;64294;49.176;16.626;2023-07-20T01:59:22;98684.78;;;18.74;72.61
75681;BME280;64294;49.176;16.626;2023-07-20T02:01:47;98684.50;;;18.70;72.75
75681;BME280;64294;49.176;16.626;2023-07-20T02:04:13;98687.38;;;18.70;72.79
75681;BME280;64294;49.176;16.626;2023-07-20T02:06:44;98690.59;;;18.76;72.78
75681;BME280;64294;49.176;16.626;2023-07-20T02:09:09;98692.31;;;18.69;72.26
75681;BME280;64294;49.176;16.626;2023-07-20T02:11:37;98690.69;;;18.66;72.56
75681;BME280;64294;49.176;16.626;2023-07-20T02:14:06;98699.09;;;18.64;72.66
75681;BME280;64294;49.176;16.626;2023-07-20T02:16:31;98701.97;;;18.55;73.25
75681;BME280;64294;49.176;16.626;2023-07-20T02:18:57;98689.84;;;18.54;73.30
75681;BME280;64294;49.176;16.626;2023-07-20T02:21:23;98698.31;;;18.42;74.22
75681;BME280;64294;49.176;16.626;2023-07-20T02:23:48;98690.41;;;18.31;74.17
75681;BME280;64294;49.176;16.626;2023-07-20T02:26:14;98691.91;;;18.32;73.61
75681;BME280;64294;49.176;16.626;2023-07-20T02:28:40;98698.94;;;18.31;73.86
75681;BME280;64294;49.176;16.626;2023-07-20T02:31:08;98703.47;;;18.25;74.09
75681;BME280;64294;49.176;16.626;2023-07-20T02:33:33;98711.69;;;18.30;73.50
75681;BME280;64294;49.176;16.626;2023-07-20T02:35:59;98714.88;;;18.25;73.75
75681;BME280;64294;49.176;16.626;2023-07-20T02:38:24;98709.91;;;18.25;73.78
75681;BME280;64294;49.176;16.626;2023-07-20T02:40:49;98718.31;;;18.23;74.04
75681;BME280;64294;49.176;16.626;2023-07-20T02:43:15;98714.88;;;18.25;73.62
75681;BME280;64294;49.176;16.626;2023-07-20T02:45:41;98728.19;;;18.22;74.05
75681;BME280;64294;49.176;16.626;2023-07-20T02:48:08;98730.88;;;18.20;73.64
75681;BME280;64294;49.176;16.626;2023-07-20T02:50:36;98714.00;;;18.12;73.75
75681;BME280;64294;49.176;16.626;2023-07-20T02:53:01;98713.00;;;18.08;74.17
75681;BME280;64294;49.176;16.626;2023-07-20T02:55:27;98716.13;;;18.02;74.25
75681;BME280;64294;49.176;16.626;2023-07-20T02:57:52;98725.00;;;17.97;74.40
75681;BME280;64294;49.176;16.626;2023-07-20T03:00:18;98725.72;;;17.97;74.58
75681;BME280;64294;49.176;16.626;2023-07-20T03:02:47;98728.72;;;17.99;73.83
75681;BME280;64294;49.176;16.626;2023-07-20T03:05:13;98734.84;;;18.05;74.22
75681;BME280;64294;49.176;16.626;2023-07-20T03:07:39;98742.78;;;17.97;74.88
75681;BME280;64294;49.176;16.626;2023-07-20T03:10:10;98749.41;;;17.90;74.57
75681;BME280;64294;49.176;16.626;2023-07-20T03:12:36;98750.16;;;17.91;74.31
75681;BME280;64294;49.176;16.626;2023-07-20T03:15:02;98756.13;;;17.95;74.43
75681;BME280;64294;49.176;16.626;2023-07-20T03:17:27;98763.00;;;17.92;74.44
75681;BME280;64294;49.176;16.626;2023-07-20T03:19:53;98771.53;;;17.92;73.96
75681;BME280;64294;49.176;16.626;2023-07-20T03:22:18;98772.25;;;18.02;74.44
75681;BME280;64294;49.176;16.626;2023-07-20T03:24:46;98776.16;;;17.97;73.25
75681;BME280;64294;49.176;16.626;2023-07-20T03:27:12;98773.78;;;17.93;74.23
75681;BME280;64294;49.176;16.626;2023-07-20T03:29:38;98782.78;;;17.90;73.99
75681;BME280;64294;49.176;16.626;2023-07-20T03:32:03;98785.63;;;17.90;73.73
75681;BME280;64294;49.176;16.626;2023-07-20T03:34:29;98785.13;;;18.03;73.11
75681;BME280;64294;49.176;16.626;2023-07-20T03:36:58;98785.59;;;17.99;73.40
75681;BME280;64294;49.176;16.626;2023-07-20T03:39:24;98786.03;;;17.96;73.72
75681;BME280;64294;49.176;16.626;2023-07-20T03:41:50;98795.47;;;17.98;73.38
75681;BME280;64294;49.176;16.626;2023-07-20T03:44:15;98799.66;;;18.07;73.68
75681;BME280;64294;49.176;16.626;2023-07-20T03:46:41;98803.38;;;18.09;74.17
75681;BME280;64294;49.176;16.626;2023-07-20T03:49:07;98805.94;;;18.05;74.63
75681;BME280;64294;49.176;16.626;2023-07-20T03:51:34;98814.44;;;18.15;74.25
75681;BME280;64294;49.176;16.626;2023-07-20T03:53:59;98822.63;;;18.21;74.21
75681;BME280;64294;49.176;16.626;2023-07-20T03:56:25;98819.63;;;18.28;73.42
75681;BME280;64294;49.176;16.626;2023-07-20T03:58:50;98826.97;;;18.31;72.63
75681;BME280;64294;49.176;16.626;2023-07-20T04:01:19;98818.56;;;18.33;72.74
75681;BME280;64294;49.176;16.626;2023-07-20T04:03:44;98829.78;;;18.41;71.89
75681;BME280;64294;49.176;16.626;2023-07-20T04:06:10;98829.00;;;18.40;71.53
75681;BME280;64294;49.176;16.626;2023-07-20T04:08:36;98824.94;;;18.53;70.82
75681;BME280;64294;49.176;16.626;2023-07-20T04:11:05;98838.00;;;18.46;70.85
75681;BME280;64294;49.176;16.626;2023-07-20T04:13:30;98835.88;;;18.47;70.89
75681;BME280;64294;49.176;16.626;2023-07-20T04:15:59;98848.16;;;18.50;71.83
75681;BME280;64294;49.176;16.626;2023-07-20T04:18:25;98842.19;;;18.45;71.94
75681;BME280;64294;49.176;16.626;2023-07-20T04:20:50;98846.66;;;18.49;71.48
75681;BME280;64294;49.176;16.626;2023-07-20T04:23:16;98853.56;;;18.45;71.69
75681;BME280;64294;49.176;16.626;2023-07-20T04:25:43;98859.97;;;18.56;71.09
75681;BME280;64294;49.176;16.626;2023-07-20T04:28:09;98862.00;;;18.74;69.66
75681;BME280;64294;49.176;16.626;2023-07-20T04:30:37;98853.94;;;18.71;69.95
75681;BME280;64294;49.176;16.626;2023-07-20T04:33:04;98857.06;;;18.75;69.53
75681;BME280;64294;49.176;16.626;2023-07-20T04:35:51;98862.13;;;18.86;69.40
75681;BME280;64294;49.176;16.626;2023-07-20T04:38:18;98855.91;;;18.99;68.55
75681;BME280;64294;49.176;16.626;2023-07-20T04:40:45;98861.03;;;18.91;69.23
75681;BME280;64294;49.176;16.626;2023-07-20T04:43:11;98859.94;;;18.96;68.93
75681;BME280;64294;49.176;16.626;2023-07-20T04:45:36;98859.16;;;19.05;68.79
75681;BME280;64294;49.176;16.626;2023-07-20T04:48:05;98858.81;;;19.11;68.09
75681;BME280;64294;49.176;16.626;2023-07-20T04:50:30;98857.59;;;19.14;68.27
75681;BME280;64294;49.176;16.626;2023-07-20T04:52:56;98853.31;;;19.34;66.89
75681;BME280;64294;49.176;16.626;2023-07-20T04:55:21;98852.59;;;19.46;66.68
75681;BME280;64294;49.176;16.626;2023-07-20T04:57:47;98853.03;;;19.73;65.61
75681;BME280;64294;49.176;16.626;2023-07-20T05:00:12;98855.13;;;19.73;64.93
75681;BME280;64294;49.176;16.626;2023-07-20T05:02:39;98862.09;;;19.81;64.40
75681;BME280;64294;49.176;16.626;2023-07-20T05:05:05;98857.16;;;19.82;63.78
75681;BME280;64294;49.176;16.626;2023-07-20T05:07:31;98853.72;;;19.95;63.56
75681;BME280;64294;49.176;16.626;2023-07-20T05:09:57;98859.03;;;19.89;63.80
75681;BME280;64294;49.176;16.626;2023-07-20T05:12:22;98861.28;;;19.69;64.40
75681;BME280;64294;49.176;16.626;2023-07-20T05:14:47;98863.81;;;19.75;64.79
75681;BME280;64294;49.176;16.626;2023-07-20T05:17:13;98871.22;;;19.68;64.95
75681;BME280;64294;49.176;16.626;2023-07-20T05:19:38;98870.88;;;19.74;64.90
75681;BME280;64294;49.176;16.626;2023-07-20T05:22:04;98868.25;;;19.99;64.42
75681;BME280;64294;49.176;16.626;2023-07-20T05:24:30;98882.69;;;20.13;63.79
75681;BME280;64294;49.176;16.626;2023-07-20T05:26:56;98869.59;;;20.31;62.83
75681;BME280;64294;49.176;16.626;2023-07-20T05:29:21;98881.50;;;20.27;63.04
75681;BME280;64294;49.176;16.626;2023-07-20T05:31:47;98888.69;;;20.40;62.46
75681;BME280;64294;49.176;16.626;2023-07-20T05:34:12;98872.91;;;20.72;61.68
75681;BME280;64294;49.176;16.626;2023-07-20T05:36:41;98886.28;;;20.81;60.90
75681;BME280;64294;49.176;16.626;2023-07-20T05:39:06;98880.59;;;20.93;60.62
75681;BME280;64294;49.176;16.626;2023-07-20T05:41:32;98886.19;;;21.14;60.44
75681;BME280;64294;49.176;16.626;2023-07-20T05:43:57;98878.22;;;21.13;59.04
75681;BME280;64294;49.176;16.626;2023-07-20T05:46:22;98874.84;;;21.52;58.27
75681;BME280;64294;49.176;16.626;2023-07-20T05:48:49;98871.59;;;21.57;57.89
75681;BME280;64294;49.176;16.626;2023-07-20T05:51:15;98876.53;;;21.68;56.91
75681;BME280;64294;49.176;16.626;2023-07-20T05:53:41;98877.00;;;21.76;56.39
75681;BME280;64294;49.176;16.626;2023-07-20T05:56:06;98868.34;;;22.00;56.04
75681;BME280;64294;49.176;16.626;2023-07-20T05:58:35;98873.78;;;22.33;55.33
75681;BME280;64294;49.176;16.626;2023-07-20T06:01:00;98869.81;;;22.91;52.47
75681;BME280;64294;49.176;16.626;2023-07-20T06:03:27;98868.00;;;23.25;51.56
75681;BME280;64294;49.176;16.626;2023-07-20T06:05:59;98866.69;;;23.42;51.45
75681;BME280;64294;49.176;16.626;2023-07-20T06:08:24;98873.53;;;23.92;49.61
75681;BME280;64294;49.176;16.626;2023-07-20T06:10:50;98874.28;;;23.78;49.85
75681;BME280;64294;49.176;16.626;2023-07-20T06:13:17;98877.84;;;24.36;48.65
75681;BME280;64294;49.176;16.626;2023-07-20T06:15:43;98865.00;;;24.84;47.12
75681;BME280;64294;49.176;16.626;2023-07-20T06:18:08;98873.78;;;25.20;46.17
75681;BME280;64294;49.176;16.626;2023-07-20T06:20:34;98874.72;;;25.58;44.27
75681;BME280;64294;49.176;16.626;2023-07-20T06:22:59;98872.66;;;27.86;39.90
75681;BME280;64294;49.176;16.626;2023-07-20T06:25:25;98859.69;;;28.31;37.68
75681;BME280;64294;49.176;16.626;2023-07-20T06:27:50;98865.47;;;30.42;34.51
75681;BME280;64294;49.176;16.626;2023-07-20T06:30:19;98867.00;;;30.78;33.39
75681;BME280;64294;49.176;16.626;2023-07-20T06:32:48;98869.31;;;31.57;31.69
75681;BME280;64294;49.176;16.626;2023-07-20T06:35:15;98871.47;;;30.83;31.98
75681;BME280;64294;49.176;16.626;2023-07-20T06:37:41;98875.56;;;28.78;34.94
75681;BME280;64294;49.176;16.626;2023-07-20T06:40:08;98879.03;;;28.04;36.43
75681;BME280;64294;49.176;16.626;2023-07-20T06:42:34;98884.97;;;27.05;38.45
75681;BME280;64294;49.176;16.626;2023-07-20T06:45:00;98874.56;;;26.23;40.52
75681;BME280;64294;49.176;16.626;2023-07-20T06:47:26;98880.47;;;26.27;40.38
75681;BME280;64294;49.176;16.626;2023-07-20T06:49:51;98879.34;;;27.09;39.10
75681;BME280;64294;49.176;16.626;2023-07-20T06:52:17;98877.22;;;29.09;36.38
75681;BME280;64294;49.176;16.626;2023-07-20T06:54:42;98870.97;;;30.30;33.40
75681;BME280;64294;49.176;16.626;2023-07-20T06:57:08;98867.91;;;30.86;32.02
75681;BME280;64294;49.176;16.626;2023-07-20T06:59:33;98858.00;;;30.97;32.24
75681;BME280;64294;49.176;16.626;2023-07-20T07:01:59;98856.34;;;32.03;30.54
75681;BME280;64294;49.176;16.626;2023-07-20T07:04:24;98848.53;;;33.20;28.77
75681;BME280;64294;49.176;16.626;2023-07-20T07:06:50;98839.59;;;34.64;26.55
75681;BME280;64294;49.176;16.626;2023-07-20T07:09:15;98834.00;;;35.27;25.42
75681;BME280;64294;49.176;16.626;2023-07-20T07:11:40;98844.56;;;34.41;26.14
75681;BME280;64294;49.176;16.626;2023-07-20T07:14:06;98846.13;;;34.60;26.39
75681;BME280;64294;49.176;16.626;2023-07-20T07:16:31;98845.69;;;35.33;25.19
75681;BME280;64294;49.176;16.626;2023-07-20T07:18:58;98848.72;;;36.16;24.06
75681;BME280;64294;49.176;16.626;2023-07-20T07:21:23;98842.88;;;36.36;23.80
75681;BME280;64294;49.176;16.626;2023-07-20T07:23:50;98841.25;;;37.01;23.05
75681;BME280;64294;49.176;16.626;2023-07-20T07:26:18;98842.34;;;37.65;22.33
75681;BME280;64294;49.176;16.626;2023-07-20T07:28:44;98842.41;;;37.56;22.54
75681;BME280;64294;49.176;16.626;2023-07-20T07:31:10;98831.75;;;38.78;20.82
75681;BME280;64294;49.176;16.626;2023-07-20T07:33:35;98836.56;;;39.08;20.49
75681;BME280;64294;49.176;16.626;2023-07-20T07:36:01;98841.91;;;38.20;21.14
75681;BME280;64294;49.176;16.626;2023-07-20T07:38:26;98829.97;;;38.40;21.13
75681;BME280;64294;49.176;16.626;2023-07-20T07:40:53;98827.28;;;40.31;18.84
75681;BME280;64294;49.176;16.626;2023-07-20T07:43:18;98829.28;;;40.82;18.88
75681;BME280;64294;49.176;16.626;2023-07-20T07:45:43;98816.94;;;41.06;18.42
75681;BME280;64294;49.176;16.626;2023-07-20T07:48:09;98818.22;;;40.04;19.67
75681;BME280;64294;49.176;16.626;2023-07-20T07:50:38;98825.69;;;40.38;18.14
75681;BME280;64294;49.176;16.626;2023-07-20T07:53:08;98815.47;;;40.70;18.52
75681;BME280;64294;49.176;16.626;2023-07-20T07:55:36;98823.66;;;41.38;16.55
75681;BME280;64294;49.176;16.626;2023-07-20T07:58:02;98813.22;;;40.34;17.79
75681;BME280;64294;49.176;16.626;2023-07-20T08:00:27;98823.13;;;40.16;17.71
75681;BME280;64294;49.176;16.626;2023-07-20T08:02:53;98826.84;;;38.58;18.23
75681;BME280;64294;49.176;16.626;2023-07-20T08:05:18;98823.09;;;37.88;19.06
75681;BME280;64294;49.176;16.626;2023-07-20T08:07:44;98816.38;;;38.75;18.72
75681;BME280;64294;49.176;16.626;2023-07-20T08:10:12;98830.06;;;38.97;18.47
75681;BME280;64294;49.176;16.626;2023-07-20T08:12:37;98829.75;;;37.82;19.00
75681;BME280;64294;49.176;16.626;2023-07-20T08:15:03;98827.53;;;36.18;20.30
75681;BME280;64294;49.176;16.626;2023-07-20T08:17:32;98820.94;;;36.05;20.87
75681;BME280;64294;49.176;16.626;2023-07-20T08:19:57;98826.28;;;37.53;19.40
75681;BME280;64294;49.176;16.626;2023-07-20T08:22:23;98828.03;;;38.14;19.26
75681;BME280;64294;49.176;16.626;2023-07-20T08:24:48;98823.50;;;39.95;17.13
75681;BME280;64294;49.176;16.626;2023-07-20T08:27:14;98828.81;;;40.28;17.59
75681;BME280;64294;49.176;16.626;2023-07-20T08:29:39;98826.41;;;39.97;17.70
75681;BME280;64294;49.176;16.626;2023-07-20T08:32:05;98817.84;;;39.32;18.50
75681;BME280;64294;49.176;16.626;2023-07-20T08:34:31;98826.84;;;39.20;18.87
75681;BME280;64294;49.176;16.626;2023-07-20T08:36:59;98824.38;;;39.36;18.84
75681;BME280;64294;49.176;16.626;2023-07-20T08:39:25;98831.63;;;40.34;17.51
75681;BME280;64294;49.176;16.626;2023-07-20T08:41:50;98823.56;;;42.02;16.32
75681;BME280;64294;49.176;16.626;2023-07-20T08:44:22;98828.47;;;42.14;16.03
75681;BME280;64294;49.176;16.626;2023-07-20T08:46:48;98817.84;;;42.25;16.17
75681;BME280;64294;49.176;16.626;2023-07-20T08:49:17;98826.72;;;43.04;15.17
75681;BME280;64294;49.176;16.626;2023-07-20T08:51:43;98831.69;;;42.59;15.60
75681;BME280;64294;49.176;16.626;2023-07-20T08:54:11;98833.44;;;43.25;15.05
75681;BME280;64294;49.176;16.626;2023-07-20T08:56:38;98828.75;;;43.34;15.02
75681;BME280;64294;49.176;16.626;2023-07-20T08:59:08;98824.22;;;43.60;14.50
75681;BME280;64294;49.176;16.626;2023-07-20T09:01:35;98829.47;;;43.10;14.50
75681;BME280;64294;49.176;16.626;2023-07-20T09:04:01;98829.63;;;41.65;15.88
75681;BME280;64294;49.176;16.626;2023-07-20T09:06:27;98826.47;;;43.37;15.45
75681;BME280;64294;49.176;16.626;2023-07-20T09:08:52;98825.81;;;40.30;17.13
75681;BME280;64294;49.176;16.626;2023-07-20T09:11:17;98833.50;;;37.67;19.49
75681;BME280;64294;49.176;16.626;2023-07-20T09:13:43;98826.03;;;35.66;20.94
75681;BME280;64294;49.176;16.626;2023-07-20T09:16:10;98829.13;;;33.43;23.08
75681;BME280;64294;49.176;16.626;2023-07-20T09:18:38;98832.38;;;32.52;24.47
75681;BME280;64294;49.176;16.626;2023-07-20T09:21:05;98840.91;;;31.14;26.42
75681;BME280;64294;49.176;16.626;2023-07-20T09:23:34;98828.22;;;32.17;25.44
75681;BME280;64294;49.176;16.626;2023-07-20T09:26:01;98816.47;;;35.20;22.42
75681;BME280;64294;49.176;16.626;2023-07-20T09:28:41;98823.56;;;37.21;19.84
75681;BME280;64294;49.176;16.626;2023-07-20T09:31:18;98813.28;;;38.90;18.36
75681;BME280;64294;49.176;16.626;2023-07-20T09:33:44;98814.03;;;38.88;18.15
75681;BME280;64294;49.176;16.626;2023-07-20T09:36:13;98815.25;;;38.44;19.06
75681;BME280;64294;49.176;16.626;2023-07-20T09:38:41;98810.56;;;36.75;20.78
75681;BME280;64294;49.176;16.626;2023-07-20T09:41:17;98813.16;;;34.37;23.51
75681;BME280;64294;49.176;16.626;2023-07-20T09:43:46;98811.88;;;34.73;22.35
75681;BME280;64294;49.176;16.626;2023-07-20T09:46:12;98807.06;;;35.99;21.64
75681;BME280;64294;49.176;16.626;2023-07-20T09:48:40;98818.41;;;37.21;20.37
75681;BME280;64294;49.176;16.626;2023-07-20T09:51:06;98807.00;;;39.18;18.07
75681;BME280;64294;49.176;16.626;2023-07-20T09:53:33;98811.34;;;37.94;19.16
75681;BME280;64294;49.176;16.626;2023-07-20T09:56:02;98815.81;;;36.22;20.46
75681;BME280;64294;49.176;16.626;2023-07-20T09:58:28;98823.03;;;35.25;21.76
75681;BME280;64294;49.176;16.626;2023-07-20T10:00:56;98818.00;;;34.00;22.63
75681;BME280;64294;49.176;16.626;2023-07-20T10:03:29;98819.97;;;32.48;24.24
75681;BME280;64294;49.176;16.626;2023-07-20T10:06:06;98806.75;;;33.64;23.38
75681;BME280;64294;49.176;16.626;2023-07-20T10:08:38;98802.66;;;36.15;21.20
75681;BME280;64294;49.176;16.626;2023-07-20T10:11:06;98808.47;;;37.86;19.74
75681;BME280;64294;49.176;16.626;2023-07-20T10:13:37;98806.31;;;38.56;18.88
75681;BME280;64294;49.176;16.626;2023-07-20T10:16:22;98799.56;;;36.80;20.25
75681;BME280;64294;49.176;16.626;2023-07-20T10:19:05;98797.97;;;38.09;18.97
75681;BME280;64294;49.176;16.626;2023-07-20T10:21:33;98776.19;;;39.17;18.36
75681;BME280;64294;49.176;16.626;2023-07-20T10:24:01;98793.59;;;40.22;17.56
75681;BME280;64294;49.176;16.626;2023-07-20T10:26:27;98783.34;;;39.30;17.66
75681;BME280;64294;49.176;16.626;2023-07-20T10:28:53;98777.53;;;40.17;17.07
75681;BME280;64294;49.176;16.626;2023-07-20T10:31:19;98786.59;;;35.69;20.34
75681;BME280;64294;49.176;16.626;2023-07-20T10:33:46;98789.38;;;34.94;21.97
75681;BME280;64294;49.176;16.626;2023-07-20T10:36:12;98785.06;;;33.08;23.13
75681;BME280;64294;49.176;16.626;2023-07-20T10:41:22;98792.03;;;31.00;25.71
75681;BME280;64294;49.176;16.626;2023-07-20T10:43:58;98795.56;;;29.66;28.27
75681;BME280;64294;49.176;16.626;2023-07-20T10:46:34;98812.16;;;29.38;28.78
75681;BME280;64294;49.176;16.626;2023-07-20T10:49:04;98807.03;;;28.82;30.09
75681;BME280;64294;49.176;16.626;2023-07-20T10:51:31;98815.44;;;28.48;29.94
75681;BME280;64294;49.176;16.626;2023-07-20T10:54:03;98820.25;;;28.18;31.15
75681;BME280;64294;49.176;16.626;2023-07-20T10:56:29;98823.13;;;27.72;31.69
75681;BME280;64294;49.176;16.626;2023-07-20T10:58:58;98825.56;;;27.60;31.80
75681;BME280;64294;49.176;16.626;2023-07-20T11:01:35;98824.09;;;27.59;32.55
75681;BME280;64294;49.176;16.626;2023-07-20T11:04:08;98833.41;;;27.35;32.64
75681;BME280;64294;49.176;16.626;2023-07-20T11:06:36;98832.28;;;27.25;32.64
75681;BME280;64294;49.176;16.626;2023-07-20T11:09:14;98839.44;;;27.43;32.22
75681;BME280;64294;49.176;16.626;2023-07-20T11:11:46;98833.47;;;27.37;32.00
75681;BME280;64294;49.176;16.626;2023-07-20T11:14:23;98842.38;;;27.87;32.37
75681;BME280;64294;49.176;16.626;2023-07-20T11:16:51;98851.63;;;28.05;33.28
75681;BME280;64294;49.176;16.626;2023-07-20T11:19:21;98867.75;;;28.13;33.61
75681;BME280;64294;49.176;16.626;2023-07-20T11:21:53;98880.03;;;27.50;35.80
75681;BME280;64294;49.176;16.626;2023-07-20T11:24:19;98869.97;;;26.71;38.16
75681;BME280;64294;49.176;16.626;2023-07-20T11:26:53;98874.97;;;27.08;37.78
75681;BME280;64294;49.176;16.626;2023-07-20T11:29:20;98871.16;;;28.07;36.36
75681;BME280;64294;49.176;16.626;2023-07-20T11:31:47;98872.72;;;28.10;36.00
75681;BME280;64294;49.176;16.626;2023-07-20T11:34:17;98877.97;;;27.72;36.43
75681;BME280;64294;49.176;16.626;2023-07-20T11:36:45;98879.97;;;26.50;37.74
75681;BME280;64294;49.176;16.626;2023-07-20T11:39:13;98875.63;;;26.49;37.84
75681;BME280;64294;49.176;16.626;2023-07-20T11:41:54;98872.97;;;26.02;39.58
75681;BME280;64294;49.176;16.626;2023-07-20T11:44:21;98869.13;;;26.49;38.26
75681;BME280;64294;49.176;16.626;2023-07-20T11:47:11;98875.13;;;26.37;38.22
75681;BME280;64294;49.176;16.626;2023-07-20T11:49:41;98874.25;;;26.70;38.21
75681;BME280;64294;49.176;16.626;2023-07-20T11:52:09;98873.09;;;26.97;36.40
75681;BME280;64294;49.176;16.626;2023-07-20T11:54:39;98873.88;;;27.18;36.42
75681;BME280;64294;49.176;16.626;2023-07-20T11:57:15;98874.03;;;27.02;35.06
75681;BME280;64294;49.176;16.626;2023-07-20T11:59:53;98872.81;;;27.09;35.25
75681;BME280;64294;49.176;16.626;2023-07-20T12:02:20;98869.84;;;26.87;35.02
75681;BME280;64294;49.176;16.626;2023-07-20T12:04:47;98862.66;;;26.88;35.61
75681;BME280;64294;49.176;16.626;2023-07-20T12:07:13;98859.91;;;26.35;37.01
75681;BME280;64294;49.176;16.626;2023-07-20T12:09:38;98857.38;;;26.43;37.07
75681;BME280;64294;49.176;16.626;2023-07-20T12:12:09;98860.50;;;26.69;36.81
75681;BME280;64294;49.176;16.626;2023-07-20T12:14:37;98851.19;;;27.91;35.35
75681;BME280;64294;49.176;16.626;2023-07-20T12:17:02;98843.59;;;30.35;31.43
75681;BME280;64294;49.176;16.626;2023-07-20T12:19:28;98843.94;;;31.20;30.32
75681;BME280;64294;49.176;16.626;2023-07-20T12:21:57;98840.91;;;30.13;31.93
75681;BME280;64294;49.176;16.626;2023-07-20T12:24:24;98839.88;;;29.73;32.45
75681;BME280;64294;49.176;16.626;2023-07-20T12:26:56;98836.00;;;29.62;32.60
75681;BME280;64294;49.176;16.626;2023-07-20T12:29:23;98837.72;;;30.99;31.69
75681;BME280;64294;49.176;16.626;2023-07-20T12:31:48;98843.19;;;32.44;28.61
75681;BME280;64294;49.176;16.626;2023-07-20T12:34:13;98832.16;;;32.91;27.52
75681;BME280;64294;49.176;16.626;2023-07-20T12:36:39;98824.28;;;33.68;26.80
75681;BME280;64294;49.176;16.626;2023-07-20T12:39:04;98819.97;;;33.77;26.13
75681;BME280;64294;49.176;16.626;2023-07-20T12:41:30;98824.00;;;33.39;26.51
75681;BME280;64294;49.176;16.626;2023-07-20T12:43:56;98821.69;;;32.69;28.08
75681;BME280;64294;49.176;16.626;2023-07-20T12:46:23;98827.50;;;32.69;27.86
75681;BME280;64294;49.176;16.626;2023-07-20T12:48:48;98814.13;;;33.04;27.08
75681;BME280;64294;49.176;16.626;2023-07-20T12:51:14;98818.16;;;32.77;26.44
75681;BME280;64294;49.176;16.626;2023-07-20T12:53:39;98816.31;;;32.47;27.49
75681;BME280;64294;49.176;16.626;2023-07-20T12:56:05;98805.94;;;31.86;28.26
75681;BME280;64294;49.176;16.626;2023-07-20T12:58:30;98805.56;;;31.63;27.95
75681;BME280;64294;49.176;16.626;2023-07-20T13:00:56;98807.31;;;31.02;29.50
75681;BME280;64294;49.176;16.626;2023-07-20T13:03:21;98805.06;;;30.63;29.45
75681;BME280;64294;49.176;16.626;2023-07-20T13:05:47;98810.06;;;30.60;29.58